Time;durP1;ratioP1;P1;durP2;ratioP2;P2;SDS_P1;SDS_P2;PMS_P1;PMS_P2;Temp;Humidity;BMP_temperature;BMP_pressure;BME280_temperature;BME280_humidity;BME280_pressure;Samples;Min_cycle;Max_cycle;Signal;HPM_P1;HPM_P2
2023/08/17 00:02:24;;;;;;;3.45;1.40;;;22.60;95.80;;;;;;5051713;28;20045;-68
2023/08/17 00:04:50;;;;;;;5.35;2.13;;;22.60;95.80;;;;;;5051436;28;20028;-68
2023/08/17 00:07:15;;;;;;;4.93;1.88;;;22.60;95.80;;;;;;5051884;28;20090;-68
2023/08/17 00:09:42;;;;;;;3.20;1.60;;;22.60;95.90;;;;;;5052933;28;20075;-68
2023/08/17 00:12:07;;;;;;;3.15;1.63;;;22.60;95.90;;;;;;5053242;28;20108;-68
2023/08/17 00:14:33;;;;;;;4.65;1.73;;;22.60;95.90;;;;;;5050614;28;20060;-68
2023/08/17 00:16:58;;;;;;;3.33;1.92;;;22.60;96.00;;;;;;5053149;28;20032;-68
2023/08/17 00:19:24;;;;;;;3.47;1.70;;;22.50;96.00;;;;;;5055069;28;20036;-68
2023/08/17 00:21:52;;;;;;;4.65;1.77;;;22.50;96.10;;;;;;5057005;28;20033;-67
2023/08/17 00:24:18;;;;;;;3.25;1.80;;;22.50;96.20;;;;;;5056042;28;20111;-68
2023/08/17 00:26:43;;;;;;;3.80;1.90;;;22.50;96.30;;;;;;5055115;28;20445;-68
2023/08/17 00:29:09;;;;;;;5.30;2.35;;;22.50;96.40;;;;;;5057208;28;20045;-68
2023/08/17 00:31:34;;;;;;;4.25;2.38;;;22.50;96.50;;;;;;5056631;28;20147;-70
2023/08/17 00:34:00;;;;;;;4.07;2.05;;;22.50;96.50;;;;;;5055744;28;20553;-68
2023/08/17 00:36:26;;;;;;;4.25;2.38;;;22.50;96.60;;;;;;5056873;28;20024;-68
2023/08/17 00:38:51;;;;;;;2.05;1.65;;;22.50;96.70;;;;;;5056834;28;20508;-68
2023/08/17 00:41:17;;;;;;;5.65;2.20;;;22.40;96.80;;;;;;5056708;28;20021;-68
2023/08/17 00:43:42;;;;;;;2.90;1.70;;;22.50;96.80;;;;;;5055340;28;20035;-68
2023/08/17 00:46:08;;;;;;;3.35;1.75;;;22.40;96.90;;;;;;5055575;28;20516;-68
2023/08/17 00:48:34;;;;;;;4.00;1.92;;;22.50;96.90;;;;;;5056513;28;20024;-69
2023/08/17 00:51:00;;;;;;;4.53;1.85;;;22.40;96.90;;;;;;5056480;28;20024;-68
2023/08/17 00:53:28;;;;;;;3.67;1.92;;;22.40;97.00;;;;;;5056441;28;20420;-68
2023/08/17 00:55:54;;;;;;;6.68;2.03;;;22.40;97.00;;;;;;5055179;28;20040;-68
2023/08/17 00:58:21;;;;;;;4.05;1.67;;;22.40;96.90;;;;;;5056669;28;20040;-68
2023/08/17 01:00:47;;;;;;;5.97;1.60;;;22.40;97.00;;;;;;5056036;28;20108;-68
2023/08/17 01:03:14;;;;;;;3.13;1.65;;;22.40;97.00;;;;;;5056239;28;20120;-68
2023/08/17 01:05:40;;;;;;;3.97;1.90;;;22.30;97.00;;;;;;5055090;28;20017;-68
2023/08/17 01:08:05;;;;;;;5.82;1.90;;;22.30;97.00;;;;;;5055375;28;20036;-68
2023/08/17 01:10:40;;;;;;;5.22;1.88;;;22.30;97.00;;;;;;5056207;28;20017;-68
2023/08/17 01:13:13;;;;;;;3.20;1.73;;;22.30;97.00;;;;;;5056264;28;20151;-69
2023/08/17 01:15:45;;;;;;;5.93;1.90;;;22.30;97.00;;;;;;5053714;28;20505;-68
2023/08/17 01:18:26;;;;;;;5.25;1.92;;;22.30;97.00;;;;;;5055640;28;20562;-68
2023/08/17 01:20:53;;;;;;;4.32;1.50;;;22.30;97.10;;;;;;5054976;28;20040;-68
2023/08/17 01:23:19;;;;;;;4.47;1.73;;;22.20;97.10;;;;;;5055897;28;20040;-69
2023/08/17 01:25:45;;;;;;;3.42;1.65;;;22.20;97.20;;;;;;5056017;28;20025;-68
2023/08/17 01:28:10;;;;;;;4.68;2.05;;;22.30;97.30;;;;;;5054538;28;20043;-69
2023/08/17 01:31:08;;;;;;;3.55;2.08;;;22.20;97.30;;;;;;5054472;28;20124;-68
2023/08/17 01:33:37;;;;;;;5.85;1.88;;;22.30;97.40;;;;;;5046912;28;20032;-68
2023/08/17 01:36:18;;;;;;;4.00;1.90;;;22.20;97.40;;;;;;5056030;28;20096;-69
2023/08/17 01:38:44;;;;;;;3.97;2.20;;;22.20;97.40;;;;;;5055703;28;20032;-69
2023/08/17 01:41:13;;;;;;;4.35;2.03;;;22.20;97.40;;;;;;5055074;28;20025;-68
2023/08/17 01:43:41;;;;;;;6.55;1.70;;;22.10;97.40;;;;;;5055408;28;20033;-68
2023/08/17 01:46:07;;;;;;;5.80;1.88;;;22.10;97.40;;;;;;5053868;28;20047;-72
2023/08/17 01:48:33;;;;;;;4.40;1.60;;;22.10;97.30;;;;;;5055468;28;20494;-70
2023/08/17 01:50:58;;;;;;;6.35;2.00;;;22.10;97.50;;;;;;5055541;28;20067;-68
2023/08/17 01:53:24;;;;;;;4.72;1.98;;;22.10;97.20;;;;;;5054968;28;20029;-69
2023/08/17 01:55:50;;;;;;;6.97;1.90;;;22.10;97.30;;;;;;5055298;28;20040;-68
2023/08/17 01:58:15;;;;;;;4.05;1.73;;;22.10;97.30;;;;;;5052251;28;20021;-68
2023/08/17 02:00:41;;;;;;;4.03;1.92;;;22.10;97.30;;;;;;5054819;28;20036;-69
2023/08/17 02:03:07;;;;;;;5.18;1.90;;;22.00;97.30;;;;;;5055209;28;20115;-68
2023/08/17 02:05:32;;;;;;;3.17;1.58;;;22.00;97.30;;;;;;5055209;28;20138;-75
2023/08/17 02:07:58;;;;;;;5.28;2.28;;;22.00;97.40;;;;;;5053916;28;20073;-68
2023/08/17 02:10:24;;;;;;;3.60;1.95;;;22.00;97.40;;;;;;5055159;28;20466;-68
2023/08/17 02:12:49;;;;;;;4.15;1.73;;;22.00;97.40;;;;;;5054332;28;20037;-68
2023/08/17 02:15:15;;;;;;;6.05;1.77;;;22.00;97.30;;;;;;5054982;28;20036;-69
2023/08/17 02:17:41;;;;;;;4.75;2.00;;;22.00;97.40;;;;;;5052724;28;20032;-68
2023/08/17 02:20:08;;;;;;;2.95;1.90;;;21.90;97.40;;;;;;5055125;28;20100;-68
2023/08/17 02:22:34;;;;;;;5.05;2.05;;;21.90;97.50;;;;;;5053284;28;20397;-68
2023/08/17 02:25:00;;;;;;;5.13;1.65;;;21.90;97.40;;;;;;5055148;28;20100;-70
2023/08/17 02:27:26;;;;;;;3.25;1.50;;;21.90;97.50;;;;;;5053465;28;20032;-68
2023/08/17 02:29:51;;;;;;;4.10;1.50;;;21.90;97.50;;;;;;5054487;28;20021;-72
2023/08/17 02:32:17;;;;;;;5.68;1.80;;;21.90;97.50;;;;;;5053446;28;20033;-68
2023/08/17 02:34:43;;;;;;;7.40;2.00;;;21.80;97.50;;;;;;5054424;28;20025;-68
2023/08/17 02:37:08;;;;;;;5.55;1.67;;;21.80;97.50;;;;;;5053041;28;20025;-68
2023/08/17 02:39:34;;;;;;;8.63;2.22;;;21.80;97.60;;;;;;5053293;28;20059;-69
2023/08/17 02:42:00;;;;;;;4.72;1.90;;;21.80;97.60;;;;;;5054221;28;20029;-68
2023/08/17 02:44:27;;;;;;;4.35;1.60;;;21.80;97.60;;;;;;5054138;28;20036;-69
2023/08/17 02:46:52;;;;;;;4.60;1.85;;;21.80;97.50;;;;;;5053405;28;20025;-69
2023/08/17 02:49:19;;;;;;;3.15;1.95;;;21.80;97.60;;;;;;5054185;28;20041;-69
2023/08/17 02:51:44;;;;;;;7.63;2.03;;;21.70;97.60;;;;;;5052978;28;20024;-68
2023/08/17 02:54:10;;;;;;;4.50;1.83;;;21.70;97.60;;;;;;5054014;28;20029;-68
2023/08/17 02:56:36;;;;;;;4.95;1.88;;;21.70;97.60;;;;;;5052906;28;20484;-68
2023/08/17 02:59:01;;;;;;;6.75;2.08;;;21.70;97.60;;;;;;5054255;28;20029;-68
2023/08/17 03:01:28;;;;;;;3.55;1.77;;;21.70;97.60;;;;;;5052855;28;20048;-68
2023/08/17 03:03:54;;;;;;;4.18;1.88;;;21.70;97.60;;;;;;5053970;28;20200;-68
2023/08/17 03:06:20;;;;;;;3.38;1.88;;;21.60;97.60;;;;;;5052504;28;20021;-69
2023/08/17 03:08:45;;;;;;;4.13;2.20;;;21.70;97.60;;;;;;5053864;28;20510;-68
2023/08/17 03:11:11;;;;;;;7.40;1.85;;;21.60;97.60;;;;;;5053240;28;20029;-68
2023/08/17 03:13:37;;;;;;;3.13;1.50;;;21.60;97.70;;;;;;5053731;28;20101;-69
2023/08/17 03:16:03;;;;;;;5.90;2.05;;;21.60;97.80;;;;;;5051971;28;20049;-68
2023/08/17 03:18:28;;;;;;;4.57;2.30;;;21.50;97.80;;;;;;5052272;28;20025;-70
2023/08/17 03:20:54;;;;;;;3.85;2.10;;;21.50;97.80;;;;;;5052967;28;20146;-68
2023/08/17 03:23:19;;;;;;;4.30;1.80;;;21.60;97.90;;;;;;5053702;28;20379;-72
2023/08/17 03:25:45;;;;;;;6.28;2.30;;;21.50;97.90;;;;;;5053287;28;20025;-71
2023/08/17 03:28:11;;;;;;;3.30;2.20;;;21.50;97.90;;;;;;5052652;28;20083;-68
2023/08/17 03:30:37;;;;;;;7.60;2.28;;;21.50;98.00;;;;;;5053461;28;20032;-68
2023/08/17 03:33:03;;;;;;;6.05;2.13;;;21.50;97.90;;;;;;5053622;28;20025;-67
2023/08/17 03:35:28;;;;;;;3.55;1.80;;;21.50;98.00;;;;;;5053489;28;20017;-68
2023/08/17 03:37:54;;;;;;;5.18;1.80;;;21.50;98.00;;;;;;5052316;28;20028;-70
2023/08/17 03:40:19;;;;;;;3.92;1.92;;;21.50;98.00;;;;;;5053321;28;20029;-68
2023/08/17 03:42:45;;;;;;;6.50;2.38;;;21.50;98.00;;;;;;5053373;28;20485;-68
2023/08/17 03:45:10;;;;;;;5.93;2.15;;;21.50;98.00;;;;;;5053389;28;20029;-72
2023/08/17 03:47:36;;;;;;;6.45;2.17;;;21.40;98.10;;;;;;5052104;28;20214;-68
2023/08/17 03:50:02;;;;;;;2.53;1.65;;;21.40;98.10;;;;;;5052995;28;20033;-71
2023/08/17 03:52:27;;;;;;;5.10;2.40;;;21.40;98.20;;;;;;5048004;28;20033;-70
2023/08/17 03:54:53;;;;;;;3.55;1.85;;;21.40;98.20;;;;;;5050387;28;20520;-68
2023/08/17 03:57:18;;;;;;;6.18;2.40;;;21.40;98.20;;;;;;5049504;28;20029;-68
2023/08/17 03:59:44;;;;;;;5.90;2.50;;;21.40;98.30;;;;;;5052456;28;20496;-69
2023/08/17 04:02:10;;;;;;;7.43;2.08;;;21.40;98.30;;;;;;5048932;28;20045;-68
2023/08/17 04:04:36;;;;;;;7.55;2.65;;;21.30;98.30;;;;;;5047849;28;20056;-69
2023/08/17 04:07:01;;;;;;;6.03;2.22;;;21.30;98.30;;;;;;5053258;28;20032;-68
2023/08/17 04:09:27;;;;;;;5.22;2.20;;;21.40;98.30;;;;;;5051852;28;20029;-69
2023/08/17 04:11:54;;;;;;;3.63;1.75;;;21.30;98.30;;;;;;5051085;28;20032;-69
2023/08/17 04:14:20;;;;;;;5.82;2.10;;;21.30;98.30;;;;;;5045987;28;20458;-70
2023/08/17 04:16:45;;;;;;;6.60;2.15;;;21.30;98.30;;;;;;5051158;28;20104;-68
2023/08/17 04:19:11;;;;;;;4.22;2.25;;;21.30;98.20;;;;;;5052936;28;20043;-68
2023/08/17 04:21:36;;;;;;;6.43;2.10;;;21.30;98.20;;;;;;5052331;28;20474;-69
2023/08/17 04:24:02;;;;;;;7.20;2.28;;;21.30;98.20;;;;;;5052483;28;20041;-68
2023/08/17 04:26:28;;;;;;;4.28;2.03;;;21.30;98.20;;;;;;5051102;28;20419;-68
2023/08/17 04:28:53;;;;;;;2.95;1.90;;;21.30;98.20;;;;;;5052635;28;20041;-69
2023/08/17 04:31:19;;;;;;;6.43;2.42;;;21.30;98.30;;;;;;5050146;28;20482;-69
2023/08/17 04:33:44;;;;;;;3.30;2.00;;;21.30;98.00;;;;;;5050731;28;20029;-70
2023/08/17 04:36:10;;;;;;;6.00;1.95;;;21.30;98.00;;;;;;5052244;28;20488;-69
2023/08/17 04:38:36;;;;;;;7.70;1.90;;;21.30;97.90;;;;;;5051378;28;20039;-68
2023/08/17 04:41:01;;;;;;;4.53;2.00;;;21.30;97.80;;;;;;5046695;28;20382;-68
2023/08/17 04:43:27;;;;;;;6.32;1.85;;;21.30;97.70;;;;;;5051677;28;20044;-70
2023/08/17 04:45:52;;;;;;;4.07;1.42;;;21.20;97.70;;;;;;5051556;28;20044;-69
2023/08/17 04:48:18;;;;;;;4.35;1.85;;;21.20;97.80;;;;;;5052729;28;20086;-69
2023/08/17 04:50:44;;;;;;;5.03;1.95;;;21.20;97.70;;;;;;5051703;28;20025;-68
2023/08/17 04:53:10;;;;;;;2.65;1.80;;;21.20;97.70;;;;;;5050969;28;20104;-68
2023/08/17 04:55:36;;;;;;;3.75;1.70;;;21.20;97.70;;;;;;5048840;28;20108;-69
2023/08/17 04:58:01;;;;;;;4.55;1.63;;;21.20;97.60;;;;;;5050994;28;20024;-68
2023/08/17 05:00:30;;;;;;;4.18;1.80;;;21.20;97.50;;;;;;5049088;28;20059;-68
2023/08/17 05:02:56;;;;;;;2.58;1.48;;;21.20;97.50;;;;;;5051450;28;20033;-68
2023/08/17 05:05:22;;;;;;;5.88;1.85;;;21.10;97.50;;;;;;5050800;28;20071;-69
2023/08/17 05:07:48;;;;;;;3.35;1.50;;;21.20;97.50;;;;;;5051459;28;20033;-68
2023/08/17 05:10:14;;;;;;;5.70;1.85;;;21.10;97.50;;;;;;5052672;28;20516;-68
2023/08/17 05:12:39;;;;;;;6.65;1.63;;;21.20;97.50;;;;;;5054546;28;20466;-68
2023/08/17 05:15:06;;;;;;;4.75;1.50;;;21.10;97.40;;;;;;5054492;28;20029;-68
2023/08/17 05:17:31;;;;;;;4.75;1.58;;;21.10;97.40;;;;;;5053911;28;20029;-69
2023/08/17 05:19:57;;;;;;;5.35;1.63;;;21.20;97.40;;;;;;5054381;28;20029;-72
2023/08/17 05:22:22;;;;;;;4.63;1.55;;;21.10;97.30;;;;;;5053660;28;20033;-71
2023/08/17 05:24:48;;;;;;;4.55;1.63;;;21.10;97.30;;;;;;5053572;28;20025;-69
2023/08/17 05:27:14;;;;;;;7.38;2.58;;;21.10;97.30;;;;;;5064380;28;20114;-69
2023/08/17 05:29:39;;;;;;;4.70;1.65;;;21.10;97.30;;;;;;5075689;28;20190;-68
2023/08/17 05:32:05;;;;;;;3.83;1.77;;;21.10;97.30;;;;;;5055887;28;20142;-69
2023/08/17 05:34:31;;;;;;;5.43;1.85;;;21.10;97.30;;;;;;5055656;28;20028;-68
2023/08/17 05:36:56;;;;;;;4.97;1.95;;;21.00;97.30;;;;;;5035422;28;20101;-69
2023/08/17 05:39:22;;;;;;;3.85;1.98;;;21.10;97.30;;;;;;5057478;28;20029;-69
2023/08/17 05:41:48;;;;;;;4.95;1.88;;;21.10;97.30;;;;;;5058544;28;20516;-71
2023/08/17 05:44:15;;;;;;;6.95;1.65;;;21.10;97.30;;;;;;5060286;28;20029;-69
2023/08/17 05:46:40;;;;;;;3.63;1.50;;;21.10;97.20;;;;;;5063536;28;20017;-68
2023/08/17 05:49:06;;;;;;;4.93;1.60;;;21.10;97.20;;;;;;5054845;28;20044;-68
2023/08/17 05:51:32;;;;;;;5.00;1.58;;;21.10;97.20;;;;;;5051980;28;20123;-70
2023/08/17 05:53:58;;;;;;;4.35;1.52;;;21.00;97.20;;;;;;5060605;28;20029;-68
2023/08/17 05:56:23;;;;;;;6.25;2.20;;;21.10;97.20;;;;;;5062032;28;20458;-69
2023/08/17 05:58:49;;;;;;;3.95;1.77;;;21.10;97.10;;;;;;5053996;28;20394;-69
2023/08/17 06:01:15;;;;;;;3.95;1.50;;;21.10;97.10;;;;;;5060748;28;20393;-68
2023/08/17 06:03:40;;;;;;;2.90;1.52;;;21.10;97.00;;;;;;5060377;28;20097;-68
2023/08/17 06:06:06;;;;;;;4.97;1.90;;;21.10;97.10;;;;;;5058645;28;20177;-69
2023/08/17 06:08:32;;;;;;;3.22;1.60;;;21.10;97.10;;;;;;5063068;28;20060;-68
2023/08/17 06:10:57;;;;;;;3.60;1.90;;;21.10;97.10;;;;;;5074776;28;20032;-69
2023/08/17 06:13:23;;;;;;;4.90;1.80;;;21.10;97.10;;;;;;5051660;28;20032;-82
2023/08/17 06:15:49;;;;;;;4.47;1.73;;;21.20;97.20;;;;;;5053066;28;20027;-69
2023/08/17 06:18:15;;;;;;;6.30;2.10;;;21.20;97.00;;;;;;5055857;28;20032;-70
2023/08/17 06:20:41;;;;;;;4.65;2.05;;;21.20;97.00;;;;;;5062294;28;20024;-68
2023/08/17 06:23:06;;;;;;;4.40;1.50;;;21.10;96.90;;;;;;5049489;28;20041;-68
2023/08/17 06:25:32;;;;;;;4.32;2.10;;;21.20;97.00;;;;;;5042783;28;20021;-68
2023/08/17 06:27:58;;;;;;;5.43;1.80;;;21.20;97.10;;;;;;5042812;28;20076;-69
2023/08/17 06:30:23;;;;;;;4.90;1.50;;;21.20;97.00;;;;;;5052741;28;20110;-70
2023/08/17 06:32:51;;;;;;;5.05;1.95;;;21.20;97.00;;;;;;5050611;28;20466;-68
2023/08/17 06:35:17;;;;;;;4.28;1.50;;;21.20;96.90;;;;;;5052283;28;20023;-70
2023/08/17 06:37:42;;;;;;;4.18;1.80;;;21.20;96.90;;;;;;5050453;28;20104;-68
2023/08/17 06:40:11;;;;;;;5.93;1.80;;;21.10;96.90;;;;;;5044064;28;20013;-68
2023/08/17 06:42:37;;;;;;;3.38;1.83;;;21.10;97.00;;;;;;5034609;28;20045;-68
2023/08/17 06:45:03;;;;;;;6.32;1.80;;;21.20;97.20;;;;;;5046569;28;20031;-69
2023/08/17 06:47:29;;;;;;;7.00;1.83;;;21.20;97.10;;;;;;5052863;28;20494;-70
2023/08/17 06:49:57;;;;;;;3.95;1.92;;;21.10;97.10;;;;;;5050366;28;20116;-72
2023/08/17 06:52:23;;;;;;;5.03;1.95;;;21.20;97.10;;;;;;5053914;28;20053;-69
2023/08/17 06:54:49;;;;;;;4.97;1.75;;;21.20;97.10;;;;;;5053232;28;20047;-73
2023/08/17 06:57:14;;;;;;;4.97;2.08;;;21.20;97.20;;;;;;5054367;28;20474;-68
2023/08/17 06:59:40;;;;;;;6.75;2.05;;;21.20;97.20;;;;;;5064521;28;20040;-69
2023/08/17 07:02:06;;;;;;;3.25;1.70;;;21.20;97.20;;;;;;5070274;28;20043;-69
2023/08/17 07:04:31;;;;;;;4.65;1.40;;;21.20;97.00;;;;;;5059196;28;20041;-75
2023/08/17 07:06:57;;;;;;;5.80;1.85;;;21.20;97.00;;;;;;5056849;28;20447;-69
2023/08/17 07:09:22;;;;;;;6.55;2.15;;;21.20;97.10;;;;;;5052069;28;20025;-69
2023/08/17 07:11:48;;;;;;;4.75;1.80;;;21.30;97.00;;;;;;5054080;28;20021;-69
2023/08/17 07:14:14;;;;;;;6.00;2.53;;;21.20;97.00;;;;;;5054824;28;20524;-69
2023/08/17 07:16:39;;;;;;;5.13;2.00;;;21.20;97.10;;;;;;5061325;28;20119;-69
2023/08/17 07:19:05;;;;;;;5.72;2.13;;;21.30;97.00;;;;;;5059589;28;20474;-69
2023/08/17 07:21:30;;;;;;;6.05;1.52;;;21.30;97.00;;;;;;5053334;28;20033;-69
2023/08/17 07:23:56;;;;;;;6.90;1.98;;;21.20;96.90;;;;;;5053562;28;20033;-69
2023/08/17 07:26:22;;;;;;;8.82;1.67;;;21.20;97.10;;;;;;5053041;28;20108;-69
2023/08/17 07:28:48;;;;;;;6.38;1.50;;;21.30;97.10;;;;;;5052134;28;20056;-69
2023/08/17 07:31:14;;;;;;;4.30;1.70;;;21.20;97.10;;;;;;5052425;28;20021;-69
2023/08/17 07:33:40;;;;;;;9.00;2.10;;;21.20;97.10;;;;;;5066759;28;20434;-68
2023/08/17 07:36:05;;;;;;;5.20;1.60;;;21.20;97.20;;;;;;5066427;28;20034;-69
2023/08/17 07:38:31;;;;;;;4.20;1.63;;;21.30;97.30;;;;;;5063457;28;20318;-68
2023/08/17 07:40:57;;;;;;;3.97;2.15;;;21.20;97.30;;;;;;5056889;28;20436;-68
2023/08/17 07:43:23;;;;;;;6.25;2.03;;;21.30;97.50;;;;;;5071683;28;20447;-69
2023/08/17 07:45:57;;;;;;;6.97;2.42;;;21.30;97.30;;;;;;5072325;28;20066;-68
2023/08/17 07:48:23;;;;;;;6.75;1.83;;;21.30;97.20;;;;;;5066911;28;20561;-67
2023/08/17 07:50:53;;;;;;;4.35;1.95;;;21.30;97.30;;;;;;5055890;28;20108;-77
2023/08/17 07:53:19;;;;;;;5.32;2.13;;;21.40;97.30;;;;;;5050750;28;20111;-71
2023/08/17 07:55:45;;;;;;;5.68;2.00;;;21.40;97.20;;;;;;5051080;28;20013;-78
2023/08/17 07:58:11;;;;;;;4.07;2.00;;;21.40;97.30;;;;;;5032523;28;20432;-79
2023/08/17 08:00:36;;;;;;;5.80;2.00;;;21.40;97.20;;;;;;5055017;28;20087;-81
2023/08/17 08:03:02;;;;;;;7.72;2.08;;;21.40;97.30;;;;;;5050292;28;20045;-79
2023/08/17 08:05:28;;;;;;;6.55;1.92;;;21.40;97.40;;;;;;5050949;28;20028;-80
2023/08/17 08:07:53;;;;;;;6.65;2.03;;;21.40;97.50;;;;;;5037086;28;20033;-67
2023/08/17 08:10:19;;;;;;;6.78;2.63;;;21.40;97.60;;;;;;5037417;28;21006;-67
2023/08/17 08:12:45;;;;;;;5.82;2.40;;;21.50;97.50;;;;;;5040512;28;20044;-68
2023/08/17 08:15:10;;;;;;;7.22;2.40;;;21.40;97.50;;;;;;5042681;28;20032;-67
2023/08/17 08:17:36;;;;;;;8.73;2.58;;;21.50;97.60;;;;;;5041318;28;20040;-67
2023/08/17 08:20:03;;;;;;;6.38;2.20;;;21.50;97.60;;;;;;5045891;28;20025;-68
2023/08/17 08:22:29;;;;;;;5.55;2.78;;;21.50;97.60;;;;;;5044665;28;20508;-67
2023/08/17 08:24:55;;;;;;;6.82;2.97;;;21.50;97.60;;;;;;5041169;28;20036;-67
2023/08/17 08:27:20;;;;;;;6.68;2.40;;;21.60;97.60;;;;;;5040516;28;20044;-67
2023/08/17 08:29:46;;;;;;;6.13;2.35;;;21.60;97.60;;;;;;5038582;28;20040;-68
2023/08/17 08:32:12;;;;;;;7.18;2.80;;;21.60;97.50;;;;;;5044255;28;20033;-68
2023/08/17 08:34:37;;;;;;;6.97;3.17;;;21.60;97.60;;;;;;5047050;28;20091;-67
2023/08/17 08:37:03;;;;;;;7.20;2.92;;;21.60;97.50;;;;;;5052021;28;20021;-68
2023/08/17 08:39:29;;;;;;;7.80;3.33;;;21.70;97.50;;;;;;5048350;28;20032;-68
2023/08/17 08:41:55;;;;;;;5.25;2.58;;;21.70;97.50;;;;;;5055120;28;20048;-68
2023/08/17 08:44:20;;;;;;;4.13;2.88;;;21.70;97.60;;;;;;5052966;28;20036;-68
2023/08/17 08:46:46;;;;;;;6.53;3.38;;;21.80;98.00;;;;;;5055473;28;20112;-68
2023/08/17 08:49:18;;;;;;;6.88;2.92;;;21.80;97.60;;;;;;5056455;28;20436;-68
2023/08/17 08:51:48;;;;;;;6.22;3.15;;;21.80;97.60;;;;;;5056167;28;20028;-73
2023/08/17 08:54:17;;;;;;;7.10;3.67;;;21.80;97.60;;;;;;5052935;28;20020;-69
2023/08/17 08:56:45;;;;;;;7.70;3.78;;;21.80;97.70;;;;;;5054394;28;20056;-68
2023/08/17 08:59:11;;;;;;;5.55;3.10;;;21.90;97.70;;;;;;5053644;28;20029;-68
2023/08/17 09:01:38;;;;;;;11.60;3.25;;;21.90;97.80;;;;;;5055812;28;20075;-68
2023/08/17 09:04:05;;;;;;;8.27;3.20;;;21.90;97.90;;;;;;5056332;28;20114;-68
2023/08/17 09:06:31;;;;;;;5.22;2.85;;;21.90;98.00;;;;;;5055932;28;20099;-70
2023/08/17 09:08:58;;;;;;;8.15;3.28;;;22.00;98.00;;;;;;5056276;28;20030;-69
2023/08/17 09:11:24;;;;;;;4.45;3.53;;;22.00;97.90;;;;;;5056287;28;20017;-68
2023/08/17 09:13:50;;;;;;;5.65;3.28;;;22.00;97.90;;;;;;5050804;28;20478;-69
2023/08/17 09:16:15;;;;;;;7.28;3.55;;;22.00;97.80;;;;;;5053164;28;20025;-68
2023/08/17 09:18:42;;;;;;;6.40;3.70;;;22.00;97.80;;;;;;5056250;28;20025;-68
2023/08/17 09:21:07;;;;;;;6.10;3.38;;;22.00;97.90;;;;;;5056151;28;20114;-69
2023/08/17 09:23:33;;;;;;;6.15;3.03;;;22.00;97.90;;;;;;5049121;28;20084;-68
2023/08/17 09:26:08;;;;;;;8.25;3.72;;;22.00;98.00;;;;;;5049674;28;20481;-68
2023/08/17 09:28:39;;;;;;;7.53;4.03;;;22.00;97.90;;;;;;5055247;28;20102;-69
2023/08/17 09:31:05;;;;;;;10.48;3.90;;;22.10;97.80;;;;;;5054714;28;20025;-71
2023/08/17 09:33:31;;;;;;;9.60;3.80;;;22.00;97.80;;;;;;5053416;28;20092;-70
2023/08/17 09:35:59;;;;;;;8.13;4.13;;;22.00;97.90;;;;;;5052925;28;20037;-68
2023/08/17 09:38:25;;;;;;;7.03;4.00;;;22.10;98.10;;;;;;5054478;28;20033;-71
2023/08/17 09:40:51;;;;;;;5.38;3.95;;;22.10;98.10;;;;;;5051317;28;20021;-74
2023/08/17 09:43:18;;;;;;;5.20;3.80;;;22.10;98.10;;;;;;5052300;28;20025;-68
2023/08/17 09:45:47;;;;;;;8.45;4.20;;;22.10;98.10;;;;;;5057294;28;20385;-68
2023/08/17 09:48:15;;;;;;;8.45;4.28;;;22.10;98.10;;;;;;5069625;28;20041;-69
2023/08/17 09:50:42;;;;;;;6.65;4.47;;;22.20;98.00;;;;;;5075047;28;20051;-68
2023/08/17 09:53:18;;;;;;;5.55;3.85;;;22.20;98.00;;;;;;5074898;28;20033;-68
2023/08/17 09:55:45;;;;;;;8.90;4.05;;;22.30;98.20;;;;;;5065465;28;20051;-68
2023/08/17 09:58:15;;;;;;;7.72;4.68;;;22.30;98.30;;;;;;5054589;28;20374;-68
2023/08/17 10:00:45;;;;;;;8.93;4.82;;;22.30;98.10;;;;;;5054192;28;20029;-68
2023/08/17 10:03:13;;;;;;;6.95;5.25;;;22.30;98.00;;;;;;5055056;28;20037;-68
2023/08/17 10:05:41;;;;;;;9.13;4.70;;;22.30;98.00;;;;;;5055227;28;20043;-68
2023/08/17 10:08:07;;;;;;;6.60;4.80;;;22.30;98.00;;;;;;5055334;28;20021;-69
2023/08/17 10:10:37;;;;;;;8.45;5.07;;;22.40;98.00;;;;;;5055220;28;20067;-68
2023/08/17 10:13:22;;;;;;;6.03;3.92;;;22.40;98.00;;;;;;5054744;28;20025;-69
2023/08/17 10:15:48;;;;;;;6.22;4.28;;;22.40;98.20;;;;;;5055357;28;20017;-69
2023/08/17 10:18:14;;;;;;;8.32;4.68;;;22.40;98.20;;;;;;5054918;28;20535;-68
2023/08/17 10:20:45;;;;;;;7.75;5.47;;;22.50;98.20;;;;;;5055153;28;20071;-69
2023/08/17 10:23:16;;;;;;;9.18;5.35;;;22.50;98.10;;;;;;5053485;28;20044;-76
2023/08/17 10:25:43;;;;;;;6.90;4.82;;;22.50;98.10;;;;;;5054891;28;20032;-69
2023/08/17 10:28:12;;;;;;;7.10;4.63;;;22.50;98.10;;;;;;5054977;28;20462;-68
2023/08/17 10:30:39;;;;;;;7.97;4.53;;;22.50;98.30;;;;;;5054860;28;20347;-68
2023/08/17 10:33:06;;;;;;;6.30;4.43;;;22.60;98.30;;;;;;5054735;28;20021;-73
2023/08/17 10:35:35;;;;;;;5.60;4.90;;;22.60;98.30;;;;;;5053522;28;20017;-68
2023/08/17 10:38:03;;;;;;;7.72;5.32;;;22.60;98.40;;;;;;5054585;28;20104;-68
2023/08/17 10:40:37;;;;;;;8.15;4.70;;;22.60;98.40;;;;;;5054748;28;20028;-68
2023/08/17 10:43:03;;;;;;;7.70;4.95;;;22.70;98.30;;;;;;5054160;28;20047;-68
2023/08/17 10:45:31;;;;;;;7.47;6.05;;;22.70;98.20;;;;;;5054411;28;20092;-68
2023/08/17 10:48:06;;;;;;;7.80;4.70;;;22.70;98.20;;;;;;5054527;28;20036;-69
2023/08/17 10:50:32;;;;;;;7.63;5.93;;;22.70;98.10;;;;;;5054387;28;20035;-69
2023/08/17 10:53:04;;;;;;;8.00;5.25;;;22.70;98.10;;;;;;5054414;28;20045;-68
2023/08/17 10:55:40;;;;;;;9.82;5.50;;;22.70;98.10;;;;;;5053979;28;20478;-68
2023/08/17 10:58:10;;;;;;;9.35;5.43;;;22.70;98.00;;;;;;5054501;28;20025;-68
2023/08/17 11:00:38;;;;;;;7.50;5.55;;;22.70;97.90;;;;;;5052826;28;20053;-69
2023/08/17 11:03:24;;;;;;;6.30;5.20;;;22.80;97.50;;;;;;5052515;28;20056;-69
2023/08/17 11:05:58;;;;;;;7.28;5.53;;;22.80;97.60;;;;;;5053432;28;20037;-68
2023/08/17 11:08:40;;;;;;;8.82;6.13;;;22.90;97.60;;;;;;5054062;28;20056;-79
2023/08/17 11:11:15;;;;;;;10.30;7.60;;;22.90;97.60;;;;;;5053886;28;20051;-69
2023/08/17 11:13:45;;;;;;;9.55;5.80;;;22.90;97.70;;;;;;5053733;28;20036;-71
2023/08/17 11:16:12;;;;;;;7.25;6.18;;;22.90;97.70;;;;;;5054146;28;20025;-68
2023/08/17 11:18:38;;;;;;;6.55;5.40;;;23.00;97.80;;;;;;5053874;28;20033;-69
2023/08/17 11:21:05;;;;;;;9.65;5.88;;;23.00;97.80;;;;;;5053720;28;20374;-69
2023/08/17 11:23:32;;;;;;;6.32;5.55;;;23.00;97.80;;;;;;5053699;28;20087;-68
2023/08/17 11:25:58;;;;;;;7.03;6.07;;;23.00;97.80;;;;;;5053432;28;20017;-75
2023/08/17 11:28:24;;;;;;;6.55;5.25;;;23.00;97.80;;;;;;5053565;28;20481;-74
2023/08/17 11:31:00;;;;;;;8.25;5.90;;;23.00;97.70;;;;;;5053717;28;20537;-72
2023/08/17 11:33:27;;;;;;;8.15;5.70;;;23.10;97.80;;;;;;5053824;28;20029;-69
2023/08/17 11:36:00;;;;;;;8.13;6.15;;;23.10;97.80;;;;;;5053575;28;20385;-72
2023/08/17 11:38:30;;;;;;;7.25;6.53;;;23.10;97.70;;;;;;5053682;28;20084;-84
2023/08/17 11:40:58;;;;;;;15.82;7.00;;;23.10;97.70;;;;;;5053041;28;20017;-68
2023/08/17 11:43:23;;;;;;;8.98;6.60;;;23.10;97.80;;;;;;5053436;28;20486;-77
2023/08/17 11:45:49;;;;;;;7.55;5.68;;;23.10;97.80;;;;;;5053415;28;20032;-69
2023/08/17 11:48:16;;;;;;;6.35;5.75;;;23.10;97.90;;;;;;5053410;28;20044;-69
2023/08/17 11:50:42;;;;;;;6.80;5.18;;;23.10;97.90;;;;;;5052024;28;20501;-70
2023/08/17 11:53:08;;;;;;;8.52;5.18;;;23.10;97.80;;;;;;5052969;28;20407;-70
2023/08/17 11:55:34;;;;;;;6.90;4.60;;;23.10;97.80;;;;;;5053126;28;20532;-82
2023/08/17 11:58:01;;;;;;;9.35;5.57;;;23.10;97.70;;;;;;5053590;28;20029;-83
2023/08/17 12:00:27;;;;;;;7.70;4.32;;;23.10;97.80;;;;;;5053129;28;20070;-76
2023/08/17 12:02:54;;;;;;;5.75;4.53;;;23.10;97.80;;;;;;5053183;28;20493;-72
2023/08/17 12:05:23;;;;;;;6.70;4.63;;;23.10;97.70;;;;;;5053177;28;20473;-84
2023/08/17 12:07:50;;;;;;;6.10;5.45;;;23.20;97.80;;;;;;5052831;28;20021;-81
2023/08/17 12:10:17;;;;;;;6.72;5.43;;;23.10;97.80;;;;;;5053036;28;20021;-68
2023/08/17 12:12:43;;;;;;;7.65;5.63;;;23.20;97.80;;;;;;5053091;28;20112;-73
2023/08/17 12:15:10;;;;;;;7.18;4.18;;;23.20;97.80;;;;;;5052511;28;20067;-72
2023/08/17 12:17:40;;;;;;;8.15;4.53;;;23.20;97.90;;;;;;5053284;28;20024;-74
2023/08/17 12:20:06;;;;;;;10.13;5.25;;;23.20;97.80;;;;;;5052848;28;20025;-68
2023/08/17 12:22:32;;;;;;;7.72;4.93;;;23.20;97.70;;;;;;5052711;28;20071;-71
2023/08/17 12:24:58;;;;;;;7.75;4.45;;;23.20;97.70;;;;;;5053102;28;20107;-72
2023/08/17 12:27:24;;;;;;;8.13;4.57;;;23.20;97.70;;;;;;5052591;28;20215;-76
2023/08/17 12:29:50;;;;;;;7.50;4.93;;;23.20;97.70;;;;;;5052969;28;20036;-69
2023/08/17 12:32:17;;;;;;;6.25;4.25;;;23.20;97.90;;;;;;5052664;28;20021;-83
2023/08/17 12:34:43;;;;;;;7.45;4.55;;;23.20;97.70;;;;;;5053174;28;20029;-69
2023/08/17 12:37:10;;;;;;;7.32;4.57;;;23.20;97.70;;;;;;5052438;28;20390;-76
2023/08/17 12:39:36;;;;;;;5.80;5.03;;;23.20;97.70;;;;;;5052840;28;20032;-83
2023/08/17 12:42:02;;;;;;;6.63;4.80;;;23.20;97.90;;;;;;5052714;28;20394;-69
2023/08/17 12:44:28;;;;;;;5.78;4.40;;;23.30;97.70;;;;;;5052796;28;20044;-68